createdAt,value
2019-02-08T00:01:54.336Z,69.41
2019-02-08T00:04:24.542Z,65.61
2019-02-08T00:06:54.562Z,65.54
2019-02-08T00:09:24.759Z,64.64
2019-02-08T00:11:54.646Z,64.50
2019-02-08T00:14:24.963Z,64.33
2019-02-08T00:16:54.857Z,65.34
2019-02-08T00:19:24.991Z,64.59
2019-02-08T00:21:55.114Z,64.43
2019-02-08T00:24:25.208Z,64.83
2019-02-08T00:26:55.390Z,64.87
2019-02-08T00:29:25.347Z,66.14
2019-02-08T00:31:55.390Z,64.42
2019-02-08T00:34:25.426Z,65.31
2019-02-08T00:36:55.422Z,64.29
2019-02-08T00:39:26.411Z,64.41
2019-02-08T00:41:56.497Z,64.24
2019-02-08T00:44:26.389Z,64.44
2019-02-08T00:46:56.307Z,65.33
2019-02-08T00:49:26.637Z,64.42
2019-02-08T00:51:56.584Z,64.43
2019-02-08T00:54:26.504Z,65.01
2019-02-08T00:56:56.445Z,65.29
2019-02-08T00:59:26.372Z,64.78
2019-02-08T01:01:56.364Z,64.69
2019-02-08T01:04:26.432Z,65.76
2019-02-08T01:06:56.637Z,64.90
2019-02-08T01:09:26.662Z,64.60
2019-02-08T01:11:56.585Z,65.02
2019-02-08T01:14:26.686Z,65.03
2019-02-08T01:16:56.607Z,64.46
2019-02-08T01:19:27.025Z,65.17
2019-02-08T01:21:56.947Z,64.89
2019-02-08T01:24:26.848Z,64.97
2019-02-08T01:26:56.767Z,64.94
2019-02-08T01:29:26.751Z,65.19
2019-02-08T01:31:57.016Z,66.31
2019-02-08T01:34:27.382Z,65.04
2019-02-08T01:36:57.664Z,65.19
2019-02-08T01:39:27.611Z,65.72
2019-02-08T01:41:57.571Z,64.40
2019-02-08T01:44:27.511Z,64.68
2019-02-08T01:46:57.494Z,66.34
2019-02-08T01:49:27.420Z,66.29
2019-02-08T01:51:57.666Z,66.67
2019-02-08T01:54:27.813Z,67.62
2019-02-08T01:56:57.726Z,65.05
2019-02-08T01:59:27.641Z,65.64
2019-02-08T02:01:57.637Z,65.35
2019-02-08T02:04:27.581Z,64.26
2019-02-08T02:06:57.777Z,64.26
2019-02-08T02:09:27.951Z,64.35
2019-02-08T02:11:57.926Z,64.92
2019-02-08T02:14:28.137Z,64.87
2019-02-08T02:16:58.386Z,64.80
2019-02-08T02:19:28.525Z,64.85
2019-02-08T02:21:58.453Z,66.07
2019-02-08T02:24:28.354Z,65.11
2019-02-08T02:26:58.246Z,65.39
2019-02-08T02:29:28.450Z,65.40
2019-02-08T02:31:58.367Z,64.73
2019-02-08T02:34:28.810Z,64.61
2019-02-08T02:36:58.770Z,65.14
2019-02-08T02:39:28.733Z,64.87
2019-02-08T02:41:58.656Z,66.80
2019-02-08T02:44:28.784Z,66.27
2019-02-08T02:46:58.689Z,65.44
2019-02-08T02:49:28.682Z,65.93
2019-02-08T02:51:58.599Z,65.66
2019-02-08T02:54:28.498Z,67.19
2019-02-08T02:56:58.408Z,65.76
2019-02-08T02:59:28.460Z,66.24
2019-02-08T03:01:58.491Z,66.98
2019-02-08T03:04:29.109Z,65.91
2019-02-08T03:06:59.095Z,65.65
2019-02-08T03:09:28.984Z,68.01
2019-02-08T03:11:59.152Z,66.94
2019-02-08T03:14:29.066Z,66.95
2019-02-08T03:16:58.981Z,66.17
2019-02-08T03:19:29.169Z,65.65
2019-02-08T03:21:59.092Z,65.58
2019-02-08T03:24:29.056Z,65.84
2019-02-08T03:26:59.370Z,67.29
2019-02-08T03:29:29.374Z,66.20
2019-02-08T03:31:59.309Z,66.66
2019-02-08T03:34:29.490Z,65.90
2019-02-08T03:36:59.762Z,65.72
2019-02-08T03:39:29.711Z,65.85
2019-02-08T03:41:59.697Z,67.09
2019-02-08T03:44:29.716Z,66.51
2019-02-08T03:46:59.670Z,65.64
2019-02-08T03:49:29.919Z,67.25
2019-02-08T03:51:59.918Z,67.66
2019-02-08T03:54:29.811Z,70.66
2019-02-08T03:56:59.731Z,67.13
2019-02-08T03:59:29.702Z,67.45
2019-02-08T04:01:59.958Z,70.06
2019-02-08T04:04:30.013Z,69.81
2019-02-08T04:07:00.278Z,67.74
2019-02-08T04:09:30.280Z,66.58
2019-02-08T04:12:00.213Z,68.39
2019-02-08T04:14:30.512Z,66.57
2019-02-08T04:17:00.561Z,66.48
2019-02-08T04:19:30.614Z,65.92
2019-02-08T04:22:00.522Z,66.33
2019-02-08T04:24:30.450Z,66.23
2019-02-08T04:27:00.479Z,68.10
2019-02-08T04:29:30.397Z,66.71
2019-02-08T04:32:00.421Z,67.88
2019-02-08T04:34:30.342Z,67.79
2019-02-08T04:37:00.215Z,66.89
2019-02-08T04:39:30.137Z,67.00
2019-02-08T04:42:00.308Z,66.30
2019-02-08T04:44:30.400Z,66.11
2019-02-08T04:47:00.643Z,66.63
2019-02-08T04:49:30.587Z,66.58
2019-02-08T04:52:00.516Z,66.47
2019-02-08T04:54:37.874Z,66.82
2019-02-08T04:57:02.632Z,66.69
2019-02-08T04:59:33.495Z,66.31
2019-02-08T05:02:03.488Z,66.96
2019-02-08T05:04:33.585Z,66.86
2019-02-08T05:07:03.697Z,66.46
2019-02-08T05:09:33.608Z,66.71
2019-02-08T05:12:03.571Z,66.32
2019-02-08T05:14:33.465Z,66.64
2019-02-08T05:17:03.430Z,66.62
2019-02-08T05:19:33.390Z,66.75
2019-02-08T05:22:03.313Z,66.13
2019-02-08T05:24:33.224Z,66.02
2019-02-08T05:27:03.368Z,67.07
2019-02-08T05:29:33.492Z,66.52
2019-02-08T05:32:03.630Z,66.44
2019-02-08T05:34:33.769Z,66.47
2019-02-08T05:37:03.694Z,66.24
2019-02-08T05:39:33.604Z,66.23
2019-02-08T05:42:03.666Z,66.40
2019-02-08T05:44:34.108Z,67.22
2019-02-08T05:47:04.651Z,66.66
2019-02-08T05:49:34.807Z,66.47
2019-02-08T05:52:06.040Z,66.22
2019-02-08T05:54:36.183Z,66.22
2019-02-08T05:57:06.217Z,66.30
2019-02-08T05:59:36.212Z,66.41
2019-02-08T06:02:06.515Z,68.66
2019-02-08T06:04:36.924Z,66.92
2019-02-08T06:07:06.890Z,66.46
2019-02-08T06:09:36.834Z,66.56
2019-02-08T06:12:07.510Z,66.75
2019-02-08T06:14:37.749Z,67.04
2019-02-08T06:17:07.696Z,66.33
2019-02-08T06:19:37.680Z,66.22
2019-02-08T06:22:07.721Z,66.64
2019-02-08T06:24:37.736Z,67.06
2019-02-08T06:27:08.058Z,66.31
2019-02-08T06:29:38.459Z,66.63
2019-02-08T06:32:08.442Z,66.65
2019-02-08T06:34:38.415Z,66.82
2019-02-08T06:37:08.353Z,67.60
2019-02-08T06:39:38.254Z,66.67
2019-02-08T06:42:08.175Z,66.87
2019-02-08T06:44:38.105Z,67.79
2019-02-08T06:47:08.380Z,66.64
2019-02-08T06:49:38.276Z,66.70
2019-02-08T06:52:08.178Z,66.46
2019-02-08T06:54:38.085Z,66.60
2019-02-08T06:57:25.551Z,66.18
2019-02-08T07:00:17.285Z,67.37
2019-02-08T07:03:01.062Z,66.95
2019-02-08T07:05:55.364Z,66.53
2019-02-08T07:08:31.108Z,66.54
2019-02-08T07:11:23.190Z,66.26
2019-02-08T07:14:09.452Z,66.38
2019-02-08T07:16:49.718Z,66.04
2019-02-08T07:19:38.398Z,66.78
2019-02-08T07:22:18.888Z,66.09
2019-02-08T07:25:00.144Z,66.66
2019-02-08T07:27:40.036Z,66.04
2019-02-08T07:30:18.928Z,66.29
2019-02-08T07:33:02.060Z,66.21
2019-02-08T07:35:46.331Z,65.48
2019-02-08T07:38:24.520Z,65.92
2019-02-08T07:41:36.634Z,65.68
2019-02-08T07:44:21.445Z,65.46
2019-02-08T07:47:17.543Z,65.31
2019-02-08T07:50:14.492Z,65.87
2019-02-08T07:53:02.656Z,64.63
2019-02-08T07:55:48.219Z,64.25
2019-02-08T07:58:33.765Z,64.29
2019-02-08T08:01:25.977Z,64.14
2019-02-08T08:04:08.820Z,63.65
2019-02-08T08:07:06.429Z,63.34
2019-02-08T08:10:01.008Z,63.05
2019-02-08T08:12:54.904Z,63.80
2019-02-08T08:15:47.128Z,64.23
2019-02-08T08:18:40.223Z,64.05
2019-02-08T08:21:31.275Z,63.18
2019-02-08T08:24:15.897Z,63.07
2019-02-08T08:27:12.078Z,62.94
2019-02-08T08:30:09.681Z,62.47
2019-02-08T08:32:51.721Z,61.79
2019-02-08T08:35:49.850Z,61.87
2019-02-08T08:39:04.572Z,60.96
2019-02-08T08:42:38.093Z,60.70
2019-02-08T08:46:36.846Z,61.52
2019-02-08T08:50:08.568Z,61.48
2019-02-08T08:53:33.861Z,62.88
2019-02-08T08:56:43.231Z,62.77
2019-02-08T09:00:07.917Z,62.38
2019-02-08T09:03:45.675Z,62.13
2019-02-08T09:06:48.941Z,61.36
2019-02-08T09:10:30.102Z,60.14
2019-02-08T09:13:43.010Z,59.78
2019-02-08T09:16:50.365Z,59.83
2019-02-08T09:20:17.924Z,60.24
2019-02-08T09:23:31.296Z,59.70
2019-02-08T09:27:06.936Z,59.92
2019-02-08T09:30:36.950Z,59.80
2019-02-08T09:33:41.073Z,59.14
2019-02-08T09:37:17.573Z,59.02
2019-02-08T09:40:53.919Z,59.65
2019-02-08T09:44:19.522Z,59.50
2019-02-08T09:47:35.744Z,59.75
2019-02-08T09:51:01.566Z,59.33
2019-02-08T09:54:11.037Z,60.13
2019-02-08T09:57:34.736Z,59.54
2019-02-08T10:00:42.738Z,59.21
2019-02-08T10:03:42.190Z,58.94
2019-02-08T10:07:18.231Z,58.48
2019-02-08T10:10:48.260Z,58.62
2019-02-08T10:14:33.294Z,60.47
2019-02-08T10:18:00.001Z,60.68
2019-02-08T10:21:28.043Z,58.89
2019-02-08T10:24:43.154Z,59.80
2019-02-08T10:28:24.542Z,57.95
2019-02-08T10:31:28.354Z,58.69
2019-02-08T10:34:45.674Z,58.33
2019-02-08T10:38:10.855Z,57.75
2019-02-08T10:41:30.565Z,59.37
2019-02-08T10:45:20.582Z,58.14
2019-02-08T10:48:45.715Z,56.77
2019-02-08T10:52:08.795Z,57.96
2019-02-08T10:55:38.511Z,57.51
2019-02-08T10:59:09.582Z,57.78
2019-02-08T11:02:39.322Z,57.08
2019-02-08T11:06:06.745Z,56.65
2019-02-08T11:09:49.263Z,55.76
2019-02-08T11:13:21.667Z,56.50
2019-02-08T11:16:46.544Z,55.68
2019-02-08T11:19:23.716Z,55.74
2019-02-08T11:21:54.957Z,54.32
2019-02-08T11:24:26.642Z,54.66
2019-02-08T11:26:59.836Z,54.53
2019-02-08T11:29:30.005Z,54.55
2019-02-08T11:32:00.090Z,53.73
2019-02-08T11:34:30.040Z,54.50
2019-02-08T11:37:00.329Z,55.31
2019-02-08T11:39:30.542Z,54.93
2019-02-08T11:42:00.462Z,54.11
2019-02-08T11:44:30.429Z,53.98
2019-02-08T11:47:00.635Z,53.97
2019-02-08T11:49:30.594Z,56.03
2019-02-08T11:52:00.629Z,55.27
2019-02-08T11:54:30.522Z,55.92
2019-02-08T11:57:00.786Z,55.75
2019-02-08T11:59:30.764Z,54.85
2019-02-08T12:02:01.044Z,54.04
2019-02-08T12:04:31.306Z,54.56
2019-02-08T12:07:01.443Z,54.41
2019-02-08T12:09:31.540Z,54.48
2019-02-08T12:12:01.440Z,53.97
2019-02-08T12:14:31.460Z,53.49
2019-02-08T12:17:01.382Z,53.16
2019-02-08T12:19:31.719Z,53.22
2019-02-08T12:22:01.879Z,53.84
2019-02-08T12:24:31.815Z,53.87
2019-02-08T12:27:01.797Z,53.54
2019-02-08T12:29:32.130Z,53.36
2019-02-08T12:32:02.106Z,53.76
2019-02-08T12:37:05.483Z,54.75
2019-02-08T12:39:35.452Z,54.87
2019-02-08T12:42:05.722Z,55.58
2019-02-08T12:44:36.098Z,56.43
2019-02-08T12:47:06.062Z,55.47
2019-02-08T12:49:36.326Z,54.79
2019-02-08T12:52:06.712Z,56.68
2019-02-08T12:54:36.864Z,55.38
2019-02-08T12:57:07.134Z,55.14
2019-02-08T12:59:37.038Z,57.49
2019-02-08T13:02:06.987Z,55.20
2019-02-08T13:04:36.967Z,57.94
2019-02-08T13:07:06.982Z,56.78
2019-02-08T13:09:37.322Z,54.80
2019-02-08T13:12:07.344Z,53.91
2019-02-08T13:14:37.454Z,53.64
2019-02-08T13:17:07.437Z,53.47
2019-02-08T13:19:37.627Z,53.45
2019-02-08T13:22:07.689Z,54.42
2019-02-08T13:24:37.833Z,53.97
2019-02-08T13:27:07.859Z,54.17
2019-02-08T13:29:38.327Z,53.45
2019-02-08T13:32:08.259Z,53.22
2019-02-08T13:34:38.441Z,53.40
2019-02-08T13:37:08.488Z,53.86
2019-02-08T13:39:38.643Z,53.52
2019-02-08T13:42:08.646Z,54.04
2019-02-08T13:44:38.599Z,55.40
2019-02-08T13:47:08.506Z,56.28
2019-02-08T13:49:38.573Z,55.27
2019-02-08T13:52:08.670Z,55.16
2019-02-08T13:54:38.643Z,54.21
2019-02-08T13:57:08.661Z,53.83
2019-02-08T13:59:38.649Z,54.51
2019-02-08T14:02:08.565Z,54.71
2019-02-08T14:04:39.215Z,54.13
2019-02-08T14:07:09.158Z,55.09
2019-02-08T14:09:39.028Z,54.89
2019-02-08T14:12:09.002Z,54.91
2019-02-08T14:14:39.163Z,54.49
2019-02-08T14:17:09.075Z,56.13
2019-02-08T14:19:39.334Z,57.16
2019-02-08T14:22:10.028Z,56.55
2019-02-08T14:24:40.234Z,55.60
2019-02-08T14:27:10.119Z,55.27
2019-02-08T14:29:40.874Z,55.04
2019-02-08T14:32:10.775Z,54.90
2019-02-08T14:34:43.639Z,53.61
2019-02-08T14:37:12.705Z,54.59
2019-02-08T14:39:42.663Z,54.53
2019-02-08T14:42:12.973Z,53.86
2019-02-08T14:44:43.271Z,54.23
2019-02-08T14:47:13.134Z,54.13
2019-02-08T14:49:43.284Z,53.74
2019-02-08T14:52:13.340Z,53.87
2019-02-08T14:54:43.463Z,54.00
2019-02-08T14:57:16.873Z,54.89
2019-02-08T14:59:45.750Z,54.21
2019-02-08T15:02:15.677Z,56.41
2019-02-08T15:04:45.602Z,56.68
2019-02-08T15:07:15.598Z,55.93
2019-02-08T15:09:46.352Z,55.36
2019-02-08T15:12:16.538Z,54.88
2019-02-08T15:14:49.843Z,54.96
2019-02-08T15:17:20.032Z,55.34
2019-02-08T15:19:50.533Z,55.17
2019-02-08T15:22:21.065Z,55.94
2019-02-08T15:24:51.011Z,56.10
2019-02-08T15:27:24.306Z,57.67
2019-02-08T15:29:52.675Z,56.59
2019-02-08T15:32:22.584Z,55.37
2019-02-08T15:34:52.614Z,54.80
2019-02-08T15:37:22.550Z,54.77
2019-02-08T15:39:52.638Z,56.26
2019-02-08T15:42:22.611Z,55.50
2019-02-08T15:44:52.777Z,54.86
2019-02-08T15:47:22.793Z,54.57
2019-02-08T15:49:53.195Z,54.94
2019-02-08T15:52:23.278Z,54.70
2019-02-08T15:54:53.290Z,55.50
2019-02-08T15:57:23.553Z,55.81
2019-02-08T15:59:53.473Z,55.65
2019-02-08T16:02:23.655Z,56.02
2019-02-08T16:04:53.712Z,55.51
2019-02-08T16:07:23.879Z,56.09
2019-02-08T16:10:04.200Z,57.27
2019-02-08T16:12:34.603Z,56.26
2019-02-08T16:15:07.153Z,57.51
2019-02-08T16:17:37.378Z,56.75
2019-02-08T16:20:07.779Z,56.53
2019-02-08T16:22:37.785Z,54.87
2019-02-08T16:25:08.744Z,55.30
2019-02-08T16:27:39.949Z,56.05
2019-02-08T16:30:16.236Z,55.40
2019-02-08T16:32:46.184Z,55.42
2019-02-08T16:35:17.634Z,55.35
2019-02-08T16:37:47.701Z,55.91
2019-02-08T16:40:21.093Z,55.17
2019-02-08T16:42:51.327Z,54.39
2019-02-08T16:45:33.087Z,55.14
2019-02-08T16:48:04.282Z,54.90
2019-02-08T16:50:34.451Z,54.67
2019-02-08T16:53:07.650Z,54.68
2019-02-08T16:55:38.199Z,54.59
2019-02-08T16:58:08.911Z,54.75
2019-02-08T17:00:39.209Z,54.99
2019-02-08T17:03:11.876Z,54.55
2019-02-08T17:05:42.219Z,54.52
2019-02-08T17:08:12.479Z,54.90
2019-02-08T17:10:42.873Z,54.87
2019-02-08T17:13:12.855Z,54.95
2019-02-08T17:15:43.111Z,56.06
2019-02-08T17:18:13.035Z,54.79
2019-02-08T17:20:46.509Z,55.69
2019-02-08T17:23:16.511Z,55.09
2019-02-08T17:25:46.658Z,55.59
2019-02-08T17:28:16.744Z,55.67
2019-02-08T17:30:47.019Z,55.83
2019-02-08T17:33:16.989Z,55.48
2019-02-08T17:35:46.906Z,55.25
2019-02-08T17:38:16.941Z,55.14
2019-02-08T17:40:48.070Z,55.30
2019-02-08T17:43:18.460Z,54.99
2019-02-08T17:45:48.378Z,56.42
2019-02-08T17:48:18.534Z,55.78
2019-02-08T17:50:48.549Z,56.12
2019-02-08T17:53:18.470Z,55.90
2019-02-08T17:55:49.032Z,55.56
2019-02-08T17:58:19.320Z,54.91
2019-02-08T18:00:59.642Z,55.44
2019-02-08T18:03:29.704Z,55.78
2019-02-08T18:05:59.697Z,55.40
2019-02-08T18:08:29.863Z,55.17
2019-02-08T18:10:59.968Z,56.50
2019-02-08T18:13:30.190Z,55.52
2019-02-08T18:16:00.275Z,55.51
2019-02-08T18:18:30.298Z,55.81
2019-02-08T18:21:04.576Z,55.29
2019-02-08T18:23:34.708Z,55.68
2019-02-08T18:26:05.236Z,55.28
2019-02-08T18:28:35.709Z,55.67
2019-02-08T18:31:05.928Z,57.68
2019-02-08T18:33:35.833Z,56.48
2019-02-08T18:36:06.149Z,55.92
2019-02-08T18:38:36.370Z,55.99
2019-02-08T18:41:06.373Z,55.49
2019-02-08T18:43:36.522Z,56.20
2019-02-08T18:46:06.611Z,56.39
2019-02-08T18:48:36.535Z,56.46
2019-02-08T18:51:06.698Z,56.24
2019-02-08T18:53:36.653Z,57.41
2019-02-08T18:56:06.642Z,56.71
2019-02-08T18:58:36.611Z,56.23
2019-02-08T19:01:07.535Z,56.61
2019-02-08T19:03:37.564Z,56.49
2019-02-08T19:06:07.653Z,56.98
2019-02-08T19:08:37.862Z,57.38
2019-02-08T19:11:08.142Z,57.23
2019-02-08T19:13:38.378Z,56.96
2019-02-08T19:16:08.928Z,56.71
2019-02-08T19:18:39.163Z,56.79
2019-02-08T19:21:09.328Z,56.79
2019-02-08T19:23:41.227Z,57.41
2019-02-08T19:26:11.356Z,56.91
2019-02-08T19:28:41.891Z,56.71
2019-02-08T19:31:12.694Z,56.81
2019-02-08T19:33:42.982Z,57.02
2019-02-08T19:36:13.943Z,56.89
2019-02-08T19:38:44.128Z,57.59
2019-02-08T19:41:15.229Z,57.00
2019-02-08T19:43:46.258Z,57.38
2019-02-08T19:46:16.350Z,56.91
2019-02-08T19:48:47.484Z,57.86
2019-02-08T19:51:18.008Z,56.79
2019-02-08T19:53:48.220Z,57.13
2019-02-08T19:56:18.497Z,57.05
2019-02-08T19:58:48.622Z,57.10
2019-02-08T20:01:18.822Z,56.61
2019-02-08T20:03:48.804Z,56.66
2019-02-08T20:06:18.925Z,56.83
2019-02-08T20:08:49.630Z,57.19
2019-02-08T20:11:20.212Z,56.92
2019-02-08T20:13:51.817Z,56.96
2019-02-08T20:16:23.307Z,57.06
2019-02-08T20:18:53.266Z,56.44
2019-02-08T20:21:23.531Z,57.24
2019-02-08T20:23:53.505Z,56.69
2019-02-08T20:26:24.683Z,56.45
2019-02-08T20:28:55.837Z,56.17
2019-02-08T20:31:26.343Z,56.85
2019-02-08T20:33:56.279Z,57.73
2019-02-08T20:36:27.889Z,58.78
2019-02-08T20:38:58.189Z,57.28
2019-02-08T20:41:28.129Z,57.31
2019-02-08T20:43:58.118Z,56.69
2019-02-08T20:46:28.246Z,57.77
2019-02-08T20:49:01.237Z,56.25
2019-02-08T20:51:31.380Z,58.19
2019-02-08T20:54:01.305Z,56.94
2019-02-08T20:56:33.962Z,56.56
2019-02-08T20:59:04.054Z,56.57
2019-02-08T21:01:34.402Z,56.67
2019-02-08T21:04:04.881Z,57.08
2019-02-08T21:06:36.321Z,56.72
2019-02-08T21:09:13.936Z,56.73
2019-02-08T21:11:43.964Z,57.63
2019-02-08T21:14:15.379Z,56.85
2019-02-08T21:16:45.485Z,61.41
2019-02-08T21:19:17.065Z,57.70
2019-02-08T21:21:47.348Z,56.50
2019-02-08T21:24:17.528Z,56.73
2019-02-08T21:26:47.858Z,57.64
2019-02-08T21:29:19.570Z,56.33
2019-02-08T21:31:49.717Z,56.53
2019-02-08T21:34:20.805Z,56.55
2019-02-08T21:36:50.707Z,57.15
2019-02-08T21:39:20.834Z,57.13
2019-02-08T21:41:50.869Z,56.75
2019-02-08T21:44:21.295Z,57.02
2019-02-08T21:46:52.042Z,57.11
2019-02-08T21:49:22.032Z,56.56
2019-02-08T21:51:52.299Z,57.08
2019-02-08T21:54:26.333Z,56.93
2019-02-08T21:56:56.188Z,57.41
2019-02-08T21:59:27.520Z,57.44
2019-02-08T22:02:00.225Z,57.68
2019-02-08T22:04:35.600Z,57.34
2019-02-08T22:07:06.515Z,57.97
2019-02-08T22:09:37.001Z,57.36
2019-02-08T22:12:07.112Z,58.15
2019-02-08T22:14:38.269Z,58.31
2019-02-08T22:17:09.347Z,57.77
2019-02-08T22:19:40.364Z,57.50
2019-02-08T22:22:11.485Z,57.81
2019-02-08T22:24:42.953Z,58.33
2019-02-08T22:27:13.121Z,57.93
2019-02-08T22:29:44.401Z,58.15
2019-02-08T22:32:14.840Z,57.90
2019-02-08T22:34:44.807Z,58.78
2019-02-08T22:37:16.145Z,58.14
2019-02-08T22:39:46.655Z,58.42
2019-02-08T22:42:16.746Z,59.13
2019-02-08T22:44:47.039Z,58.58
2019-02-08T22:47:16.962Z,59.02
2019-02-08T22:49:46.945Z,58.40
2019-02-08T22:52:17.500Z,58.34
2019-02-08T22:54:48.156Z,59.07
2019-02-08T22:57:18.106Z,58.88
2019-02-08T22:59:48.960Z,58.22
2019-02-08T23:02:19.014Z,58.63
2019-02-08T23:04:49.068Z,59.28
2019-02-08T23:07:19.319Z,58.63
2019-02-08T23:09:49.411Z,58.31
2019-02-08T23:12:19.608Z,59.27
2019-02-08T23:14:49.732Z,58.23
2019-02-08T23:17:19.722Z,58.12
2019-02-08T23:19:49.996Z,58.73
2019-02-08T23:22:19.885Z,58.30
2019-02-08T23:24:50.067Z,58.94
2019-02-08T23:27:20.013Z,58.20
2019-02-08T23:29:49.920Z,59.42
2019-02-08T23:32:20.423Z,58.61
2019-02-08T23:34:50.687Z,58.58
2019-02-08T23:37:25.838Z,58.17
2019-02-08T23:39:52.715Z,57.74
2019-02-08T23:42:23.374Z,58.81
2019-02-08T23:44:53.329Z,57.43
2019-02-08T23:47:23.277Z,57.05
2019-02-08T23:49:53.276Z,57.70
2019-02-08T23:52:23.331Z,56.89
2019-02-08T23:54:53.211Z,56.89
2019-02-08T23:57:23.192Z,56.65
2019-02-08T23:59:53.120Z,56.63
